createdAt,value
2023-05-12T00:00:11.230Z,134.62
2023-05-12T00:01:11.198Z,135.79
2023-05-12T00:02:11.263Z,138.95
2023-05-12T00:03:11.280Z,134.82
2023-05-12T00:04:11.364Z,134.53
2023-05-12T00:05:11.193Z,132.15
2023-05-12T00:06:11.171Z,134.56
2023-05-12T00:07:11.166Z,135.46
2023-05-12T00:08:11.156Z,138.40
2023-05-12T00:09:11.165Z,137.23
2023-05-12T00:10:11.165Z,133.22
2023-05-12T00:11:11.126Z,135.45
2023-05-12T00:12:11.146Z,135.89
2023-05-12T00:13:11.167Z,140.80
2023-05-12T00:14:11.089Z,135.93
2023-05-12T00:15:11.120Z,134.23
2023-05-12T00:16:11.159Z,139.40
2023-05-12T00:17:11.117Z,137.64
2023-05-12T00:18:11.120Z,137.76
2023-05-12T00:19:11.239Z,137.97
2023-05-12T00:20:11.158Z,138.49
2023-05-12T00:21:11.198Z,138.73
2023-05-12T00:22:11.200Z,136.10
2023-05-12T00:23:11.266Z,137.71
2023-05-12T00:24:11.267Z,139.16
2023-05-12T00:25:11.279Z,140.87
2023-05-12T00:26:11.272Z,136.88
2023-05-12T00:27:11.345Z,137.32
2023-05-12T00:28:11.324Z,138.59
2023-05-12T00:29:11.344Z,135.94
2023-05-12T00:30:11.399Z,139.64
2023-05-12T00:31:11.502Z,139.40
2023-05-12T00:32:11.423Z,141.68
2023-05-12T00:33:11.423Z,138.59
2023-05-12T00:34:11.429Z,138.54
2023-05-12T00:35:11.445Z,138.71
2023-05-12T00:36:11.511Z,139.51
2023-05-12T00:37:11.499Z,139.84
2023-05-12T00:38:11.553Z,137.42
2023-05-12T00:39:11.571Z,136.23
2023-05-12T00:40:11.573Z,138.11
2023-05-12T00:41:11.720Z,136.96
2023-05-12T00:42:11.582Z,138.43
2023-05-12T00:43:11.642Z,141.98
2023-05-12T00:44:11.672Z,136.52
2023-05-12T00:45:11.641Z,138.43
2023-05-12T00:46:11.751Z,136.89
2023-05-12T00:47:11.683Z,135.48
2023-05-12T00:48:11.792Z,142.14
2023-05-12T00:49:11.729Z,137.19
2023-05-12T00:50:11.931Z,136.92
2023-05-12T00:51:11.784Z,139.96
2023-05-12T00:52:11.793Z,140.65
2023-05-12T00:53:11.828Z,137.76
2023-05-12T00:54:11.872Z,140.66
2023-05-12T00:55:11.951Z,138.07
2023-05-12T00:56:11.943Z,137.88
2023-05-12T00:57:11.962Z,138.71
2023-05-12T00:58:12.122Z,138.93
2023-05-12T00:59:12.172Z,138.53
2023-05-12T01:00:12.083Z,138.59
2023-05-12T01:01:12.122Z,141.82
2023-05-12T01:02:12.168Z,141.25
2023-05-12T01:03:12.241Z,139.47
2023-05-12T01:04:12.150Z,142.52
2023-05-12T01:05:12.189Z,141.70
2023-05-12T01:06:12.244Z,141.63
2023-05-12T01:07:12.226Z,141.95
2023-05-12T01:08:12.294Z,139.70
2023-05-12T01:09:12.293Z,141.08
2023-05-12T01:10:12.310Z,140.73
2023-05-12T01:11:12.310Z,143.63
2023-05-12T01:12:12.422Z,140.91
2023-05-12T01:13:12.433Z,142.95
2023-05-12T01:14:12.372Z,138.09
2023-05-12T01:15:12.430Z,139.56
2023-05-12T01:16:12.490Z,139.66
2023-05-12T01:17:12.547Z,140.88
2023-05-12T01:18:12.490Z,139.82
2023-05-12T01:19:12.648Z,142.24
2023-05-12T01:20:12.532Z,143.70
2023-05-12T01:21:12.535Z,143.47
2023-05-12T01:22:12.591Z,142.25
2023-05-12T01:23:12.589Z,142.38
2023-05-12T01:24:12.640Z,141.03
2023-05-12T01:25:12.717Z,142.20
2023-05-12T01:26:12.706Z,141.08
2023-05-12T01:27:12.728Z,143.27
2023-05-12T01:28:12.742Z,142.55
2023-05-12T01:29:12.766Z,141.82
2023-05-12T01:30:12.798Z,144.41
2023-05-12T01:31:12.897Z,143.35
2023-05-12T01:32:12.875Z,143.18
2023-05-12T01:33:12.874Z,142.25
2023-05-12T01:34:12.894Z,143.88
2023-05-12T01:35:12.935Z,143.33
2023-05-12T01:36:12.943Z,144.06
2023-05-12T01:37:13.005Z,143.23
2023-05-12T01:38:12.994Z,144.16
2023-05-12T01:39:13.071Z,143.72
2023-05-12T01:40:13.043Z,141.45
2023-05-12T01:41:13.127Z,143.27
2023-05-12T01:42:13.127Z,147.30
2023-05-12T01:43:13.134Z,145.17
2023-05-12T01:44:13.169Z,142.01
2023-05-12T01:45:13.208Z,142.90
2023-05-12T01:46:13.233Z,140.96
2023-05-12T01:47:13.266Z,143.24
2023-05-12T01:48:13.270Z,144.68
2023-05-12T01:49:13.268Z,143.56
2023-05-12T01:50:13.341Z,143.98
2023-05-12T01:51:13.398Z,144.57
2023-05-12T01:52:13.357Z,142.22
2023-05-12T01:53:13.492Z,144.70
2023-05-12T01:54:13.405Z,143.60
2023-05-12T01:55:13.477Z,143.59
2023-05-12T01:56:13.531Z,143.31
2023-05-12T01:57:13.496Z,141.79
2023-05-12T01:58:13.540Z,142.99
2023-05-12T01:59:13.584Z,147.85
2023-05-12T02:00:13.597Z,142.37
2023-05-12T02:01:13.662Z,143.39
2023-05-12T02:02:13.661Z,144.89
2023-05-12T02:03:13.718Z,146.03
2023-05-12T02:04:13.743Z,146.28
2023-05-12T02:05:13.691Z,143.44
2023-05-12T02:06:13.758Z,144.02
2023-05-12T02:07:13.727Z,147.61
2023-05-12T02:08:13.813Z,145.37
2023-05-12T02:09:13.822Z,143.44
2023-05-12T02:10:13.835Z,143.19
2023-05-12T02:11:13.886Z,144.56
2023-05-12T02:12:13.853Z,146.60
2023-05-12T02:13:13.960Z,146.54
2023-05-12T02:14:13.958Z,145.26
2023-05-12T02:15:13.981Z,144.99
2023-05-12T02:16:14.052Z,144.89
2023-05-12T02:17:14.087Z,142.12
2023-05-12T02:18:14.086Z,145.53
2023-05-12T02:19:14.092Z,145.94
2023-05-12T02:20:14.115Z,142.87
2023-05-12T02:21:14.173Z,144.64
2023-05-12T02:22:14.173Z,143.96
2023-05-12T02:23:14.235Z,143.65
2023-05-12T02:24:14.989Z,147.33
2023-05-12T02:25:14.248Z,143.91
2023-05-12T02:26:14.334Z,148.67
2023-05-12T02:27:14.362Z,145.21
2023-05-12T02:28:14.356Z,147.34
2023-05-12T02:29:14.350Z,144.74
2023-05-12T02:30:14.404Z,147.80
2023-05-12T02:31:14.432Z,144.45
2023-05-12T02:32:14.433Z,141.36
2023-05-12T02:33:14.508Z,148.14
2023-05-12T02:34:14.651Z,145.70
2023-05-12T02:35:14.673Z,145.35
2023-05-12T02:36:14.623Z,146.81
2023-05-12T02:37:14.580Z,146.39
2023-05-12T02:38:14.651Z,144.33
2023-05-12T02:39:14.644Z,146.22
2023-05-12T02:40:14.666Z,147.50
2023-05-12T02:41:14.687Z,144.94
2023-05-12T02:42:14.720Z,148.08
2023-05-12T02:43:14.779Z,142.42
2023-05-12T02:44:14.903Z,140.52
2023-05-12T02:45:14.918Z,146.71
2023-05-12T02:46:14.897Z,147.56
2023-05-12T02:47:14.851Z,143.81
2023-05-12T02:48:14.906Z,147.80
2023-05-12T02:49:14.952Z,146.58
2023-05-12T02:50:14.993Z,144.96
2023-05-12T02:51:15.004Z,143.91
2023-05-12T02:52:15.032Z,147.37
2023-05-12T02:53:15.093Z,146.01
2023-05-12T02:54:15.088Z,147.32
2023-05-12T02:55:15.161Z,146.44
2023-05-12T02:56:15.182Z,146.45
2023-05-12T02:57:15.219Z,148.80
2023-05-12T02:58:15.243Z,145.66
2023-05-12T02:59:15.226Z,148.12
2023-05-12T03:00:15.788Z,147.59
2023-05-12T03:01:15.564Z,147.36
2023-05-12T03:02:15.348Z,144.60
2023-05-12T03:03:15.405Z,146.60
2023-05-12T03:04:15.299Z,148.22
2023-05-12T03:05:15.338Z,149.07
2023-05-12T03:06:15.410Z,147.04
2023-05-12T03:07:15.469Z,148.08
2023-05-12T03:08:15.446Z,145.86
2023-05-12T03:09:15.461Z,151.05
2023-05-12T03:10:15.478Z,149.12
2023-05-12T03:11:15.506Z,145.57
2023-05-12T03:12:15.507Z,148.96
2023-05-12T03:13:15.548Z,151.61
2023-05-12T03:14:15.613Z,148.02
2023-05-12T03:15:15.646Z,150.47
2023-05-12T03:16:16.488Z,146.65
2023-05-12T03:17:15.781Z,148.72
2023-05-12T03:18:15.786Z,149.91
2023-05-12T03:19:15.793Z,148.28
2023-05-12T03:20:15.852Z,148.55
2023-05-12T03:21:15.858Z,149.06
2023-05-12T03:22:15.867Z,146.90
2023-05-12T03:23:15.921Z,151.44
2023-05-12T03:24:16.008Z,148.65
2023-05-12T03:25:16.138Z,150.46
2023-05-12T03:26:16.002Z,151.07
2023-05-12T03:27:16.040Z,147.36
2023-05-12T03:28:16.081Z,148.26
2023-05-12T03:29:16.124Z,151.79
2023-05-12T03:30:16.121Z,153.87
2023-05-12T03:31:16.186Z,149.02
2023-05-12T03:32:16.188Z,150.58
2023-05-12T03:33:16.190Z,148.96
2023-05-12T03:34:16.257Z,146.39
2023-05-12T03:35:16.244Z,150.24
2023-05-12T03:36:16.283Z,150.01
2023-05-12T03:37:16.334Z,146.46
2023-05-12T03:38:16.333Z,150.30
2023-05-12T03:39:16.389Z,149.59
2023-05-12T03:40:16.381Z,149.47
2023-05-12T03:41:16.457Z,150.70
2023-05-12T03:42:16.533Z,150.00
2023-05-12T03:43:16.528Z,150.02
2023-05-12T03:44:16.507Z,147.63
2023-05-12T03:45:16.523Z,153.27
2023-05-12T03:46:16.662Z,147.73
2023-05-12T03:47:16.671Z,152.63
2023-05-12T03:48:16.700Z,150.97
2023-05-12T03:49:16.638Z,146.15
2023-05-12T03:50:16.724Z,146.86
2023-05-12T03:51:16.703Z,148.19
2023-05-12T03:52:16.727Z,145.39
2023-05-12T03:53:16.786Z,148.15
2023-05-12T03:54:16.815Z,147.15
2023-05-12T03:55:16.842Z,149.63
2023-05-12T03:56:16.863Z,150.07
2023-05-12T03:57:16.917Z,148.70
2023-05-12T03:58:16.972Z,146.94
2023-05-12T03:59:16.981Z,147.52
2023-05-12T04:00:17.016Z,148.80
2023-05-12T04:01:17.001Z,149.60
2023-05-12T04:02:17.118Z,149.28
2023-05-12T04:03:17.263Z,149.57
2023-05-12T04:04:17.210Z,149.23
2023-05-12T04:05:17.154Z,146.77
2023-05-12T04:06:17.138Z,150.00
2023-05-12T04:07:17.182Z,148.10
2023-05-12T04:08:17.253Z,149.47
2023-05-12T04:09:17.317Z,148.21
2023-05-12T04:10:17.400Z,151.89
2023-05-12T04:11:17.331Z,148.67
2023-05-12T04:12:17.422Z,149.08
2023-05-12T04:13:17.389Z,152.36
2023-05-12T04:14:17.444Z,150.66
2023-05-12T04:15:17.450Z,152.07
2023-05-12T04:16:17.564Z,148.46
2023-05-12T04:17:17.592Z,150.84
2023-05-12T04:18:17.602Z,147.57
2023-05-12T04:19:17.595Z,147.22
2023-05-12T04:20:17.858Z,148.50
2023-05-12T04:21:17.623Z,144.19
2023-05-12T04:22:17.696Z,149.32
2023-05-12T04:23:17.726Z,150.82
2023-05-12T04:24:17.740Z,146.60
2023-05-12T04:25:17.796Z,149.33
2023-05-12T04:26:17.833Z,143.87
2023-05-12T04:27:17.844Z,147.16
2023-05-12T04:28:17.932Z,145.81
2023-05-12T04:29:17.911Z,144.54
2023-05-12T04:30:18.032Z,145.47
2023-05-12T04:31:17.995Z,143.51
2023-05-12T04:32:18.073Z,144.01
2023-05-12T04:33:18.037Z,143.35
2023-05-12T04:34:18.194Z,144.26
2023-05-12T04:35:18.103Z,141.61
2023-05-12T04:36:18.128Z,143.35
2023-05-12T04:37:18.179Z,141.95
2023-05-12T04:38:18.221Z,143.60
2023-05-12T04:39:18.209Z,143.89
2023-05-12T04:40:18.507Z,144.64
2023-05-12T04:41:18.267Z,144.03
2023-05-12T04:42:18.329Z,146.96
2023-05-12T04:44:18.370Z,145.59
2023-05-12T04:45:18.561Z,144.14
2023-05-12T04:46:18.398Z,144.26
2023-05-12T04:47:18.388Z,144.65
2023-05-12T04:48:18.352Z,144.40
2023-05-12T04:49:18.328Z,143.69
2023-05-12T04:50:18.363Z,144.45
2023-05-12T04:51:18.315Z,143.11
2023-05-12T04:52:18.336Z,142.25
2023-05-12T04:53:18.336Z,141.75
2023-05-12T04:54:18.310Z,141.51
2023-05-12T04:55:18.485Z,143.36
2023-05-12T04:56:18.306Z,143.50
2023-05-12T04:57:18.306Z,143.19
2023-05-12T04:58:18.294Z,141.58
2023-05-12T04:59:18.299Z,144.44
2023-05-12T05:00:18.280Z,140.00
2023-05-12T05:01:18.337Z,142.11
2023-05-12T05:02:18.285Z,140.38
2023-05-12T05:03:18.312Z,142.07
2023-05-12T05:04:18.247Z,144.62
2023-05-12T05:05:18.328Z,142.42
2023-05-12T05:06:18.261Z,141.90
2023-05-12T05:07:18.224Z,141.77
2023-05-12T05:08:18.283Z,139.90
2023-05-12T05:09:18.359Z,138.89
2023-05-12T05:10:18.194Z,139.53
2023-05-12T05:11:18.206Z,139.72
2023-05-12T05:12:18.228Z,139.87
2023-05-12T05:13:18.141Z,139.25
2023-05-12T05:14:18.180Z,142.03
2023-05-12T05:15:18.988Z,142.87
2023-05-12T05:16:18.159Z,139.62
2023-05-12T05:17:18.119Z,139.94
2023-05-12T05:18:18.145Z,137.79
2023-05-12T05:19:24.426Z,138.06
2023-05-12T05:20:19.827Z,138.40
2023-05-12T05:21:18.107Z,137.99
2023-05-12T05:22:18.130Z,138.91
2023-05-12T05:23:18.139Z,137.79
2023-05-12T05:24:18.084Z,137.02
2023-05-12T05:25:18.354Z,138.34
2023-05-12T05:26:18.045Z,135.47
2023-05-12T05:27:18.062Z,135.66
2023-05-12T05:28:18.055Z,137.22
2023-05-12T05:29:18.070Z,138.72
2023-05-12T05:30:18.095Z,136.29
2023-05-12T05:31:18.093Z,134.20
2023-05-12T05:32:18.025Z,135.21
2023-05-12T05:33:18.046Z,134.73
2023-05-12T05:34:18.055Z,132.62
2023-05-12T05:35:18.206Z,126.66
2023-05-12T05:36:18.056Z,125.78
2023-05-12T05:37:18.024Z,128.51
2023-05-12T05:38:18.138Z,120.93
2023-05-12T05:39:18.081Z,124.78
2023-05-12T05:40:18.158Z,111.74
2023-05-12T05:41:18.194Z,106.74
2023-05-12T05:42:18.228Z,103.14
2023-05-12T05:43:18.381Z,101.24
2023-05-12T05:44:18.387Z,99.06
2023-05-12T05:45:18.735Z,97.35
2023-05-12T05:46:18.450Z,93.13
2023-05-12T05:47:18.491Z,94.25
2023-05-12T05:48:18.462Z,91.93
2023-05-12T05:49:18.509Z,91.00
2023-05-12T05:50:18.530Z,92.39
2023-05-12T05:51:18.602Z,92.76
2023-05-12T05:52:18.707Z,92.32
2023-05-12T05:53:19.344Z,92.14
2023-05-12T05:54:18.768Z,93.02
2023-05-12T05:55:19.113Z,96.46
2023-05-12T05:56:19.426Z,96.58
2023-05-12T05:57:18.952Z,95.37
2023-05-12T05:58:19.352Z,100.48
2023-05-12T05:59:19.033Z,102.61
2023-05-12T06:00:19.432Z,108.88
2023-05-12T06:01:19.099Z,110.33
2023-05-12T06:02:19.169Z,114.15
2023-05-12T06:03:19.211Z,116.05
2023-05-12T06:04:19.373Z,116.05
2023-05-12T06:05:19.314Z,118.92
2023-05-12T06:06:19.198Z,127.16
2023-05-12T06:07:20.536Z,126.47
2023-05-12T06:08:19.141Z,129.02
2023-05-12T06:09:19.149Z,135.04
2023-05-12T06:10:19.450Z,141.71
2023-05-12T06:11:19.268Z,143.99
2023-05-12T06:12:19.116Z,146.11
2023-05-12T06:13:19.161Z,148.73
2023-05-12T06:14:19.186Z,152.13
2023-05-12T06:15:19.345Z,154.46
2023-05-12T06:16:19.250Z,156.30
2023-05-12T06:17:19.370Z,161.11
2023-05-12T06:18:19.303Z,164.65
2023-05-12T06:19:19.424Z,166.03
2023-05-12T06:20:19.495Z,171.76
2023-05-12T06:21:19.503Z,174.90
2023-05-12T06:22:19.575Z,180.30
2023-05-12T06:23:19.619Z,180.64
2023-05-12T06:24:19.664Z,181.25
2023-05-12T06:25:19.965Z,186.52
2023-05-12T06:26:19.830Z,188.83
2023-05-12T06:27:19.887Z,193.06
2023-05-12T06:28:19.942Z,196.77
2023-05-12T06:29:19.998Z,197.54
2023-05-12T06:30:20.034Z,201.75
2023-05-12T06:31:20.126Z,204.64
2023-05-12T06:32:20.148Z,206.50
2023-05-12T06:33:20.188Z,212.90
2023-05-12T06:34:20.261Z,212.35
2023-05-12T06:35:20.511Z,215.24
2023-05-12T06:36:20.320Z,219.38
2023-05-12T06:37:20.338Z,219.83
2023-05-12T06:38:20.382Z,221.89
2023-05-12T06:39:20.434Z,218.31
2023-05-12T06:40:20.490Z,209.89
2023-05-12T06:41:20.515Z,201.49
2023-05-12T06:42:20.656Z,205.89
2023-05-12T06:43:20.891Z,199.62
2023-05-12T06:44:20.732Z,192.89
2023-05-12T06:45:21.163Z,184.21
2023-05-12T06:46:20.848Z,181.02
2023-05-12T06:47:20.825Z,175.76
2023-05-12T06:48:20.831Z,165.44
2023-05-12T06:49:21.398Z,163.18
2023-05-12T06:50:20.889Z,161.30
2023-05-12T06:51:21.427Z,150.04
2023-05-12T06:52:20.900Z,151.49
2023-05-12T06:53:21.844Z,149.30
2023-05-12T06:54:21.132Z,135.73
2023-05-12T06:55:21.338Z,137.67
2023-05-12T06:56:21.010Z,134.89
2023-05-12T06:57:21.109Z,135.47
2023-05-12T06:58:21.096Z,124.58
2023-05-12T06:59:21.459Z,126.38
2023-05-12T07:00:21.108Z,123.99
2023-05-12T07:01:21.143Z,117.86
2023-05-12T07:02:21.169Z,120.63
2023-05-12T07:03:21.191Z,118.76
2023-05-12T07:04:21.173Z,115.30
2023-05-12T07:05:21.519Z,116.61
2023-05-12T07:06:21.252Z,109.21
2023-05-12T07:07:21.289Z,107.04
2023-05-12T07:08:21.368Z,106.05
2023-05-12T07:09:21.378Z,102.05
2023-05-12T07:10:21.425Z,103.11
2023-05-12T07:11:21.452Z,99.38
2023-05-12T07:12:21.607Z,102.78
2023-05-12T07:13:21.547Z,95.22
2023-05-12T07:14:21.791Z,94.30
2023-05-12T07:15:21.852Z,90.70
2023-05-12T07:16:21.767Z,93.22
2023-05-12T07:17:21.888Z,87.55
2023-05-12T07:18:21.833Z,88.92
2023-05-12T07:19:21.835Z,87.86
2023-05-12T07:20:21.894Z,81.71
2023-05-12T07:21:21.923Z,82.90
2023-05-12T07:22:22.022Z,85.86
2023-05-12T07:23:22.861Z,82.79
2023-05-12T07:24:22.089Z,80.37
2023-05-12T07:25:22.330Z,81.72
2023-05-12T07:26:22.147Z,79.04
2023-05-12T07:27:22.223Z,73.44
2023-05-12T07:28:22.291Z,77.98
2023-05-12T07:29:22.322Z,75.20
2023-05-12T07:30:22.577Z,76.58
2023-05-12T07:31:23.760Z,67.93
2023-05-12T07:32:22.455Z,70.81
2023-05-12T07:33:22.518Z,67.43
2023-05-12T07:34:22.714Z,65.20
2023-05-12T07:35:22.715Z,51.75
2023-05-12T07:36:22.583Z,55.95
2023-05-12T07:37:22.597Z,56.59
2023-05-12T07:38:22.652Z,58.21
2023-05-12T07:39:22.659Z,60.04
2023-05-12T07:40:22.704Z,63.44
2023-05-12T07:41:22.761Z,57.61
2023-05-12T07:42:22.761Z,62.05
2023-05-12T07:43:22.791Z,60.99
2023-05-12T07:44:22.775Z,65.44
2023-05-12T07:45:22.795Z,61.08
2023-05-12T07:46:22.832Z,59.01
2023-05-12T07:47:22.817Z,57.08
2023-05-12T07:48:22.816Z,57.35
2023-05-12T07:49:22.808Z,63.45
2023-05-12T07:50:22.787Z,56.47
2023-05-12T07:51:22.787Z,54.79
2023-05-12T07:52:22.790Z,56.31
2023-05-12T07:53:22.799Z,51.83
2023-05-12T07:54:22.820Z,57.48
2023-05-12T07:55:23.071Z,54.46
2023-05-12T07:56:22.828Z,54.33
2023-05-12T07:57:22.792Z,57.90
2023-05-12T07:58:22.839Z,58.27
2023-05-12T07:59:22.889Z,53.32
2023-05-12T08:00:22.807Z,53.86
2023-05-12T08:01:22.859Z,54.84
2023-05-12T08:02:22.920Z,51.85
2023-05-12T08:03:22.973Z,55.50
2023-05-12T08:04:22.886Z,52.03
2023-05-12T08:05:22.820Z,48.99
2023-05-12T08:06:22.834Z,47.59
2023-05-12T08:07:22.943Z,51.34
2023-05-12T08:08:22.816Z,51.48
2023-05-12T08:09:23.923Z,52.00
2023-05-12T08:10:22.812Z,51.99
2023-05-12T08:11:22.878Z,47.55
2023-05-12T08:12:22.850Z,54.15
2023-05-12T08:13:22.837Z,56.99
2023-05-12T08:14:22.935Z,56.29
2023-05-12T08:15:22.970Z,50.10
2023-05-12T08:16:22.920Z,52.58
2023-05-12T08:17:22.998Z,54.79
2023-05-12T08:18:23.084Z,48.30
2023-05-12T08:19:23.016Z,52.53
2023-05-12T08:20:23.991Z,53.02
2023-05-12T08:21:23.030Z,49.32
2023-05-12T08:22:23.028Z,45.25
2023-05-12T08:23:23.123Z,46.85
2023-05-12T08:24:23.052Z,52.33
2023-05-12T08:25:23.093Z,48.53
2023-05-12T08:26:23.498Z,49.15
2023-05-12T08:27:23.068Z,47.51
2023-05-12T08:28:23.095Z,41.92
2023-05-12T08:29:23.210Z,30.57
2023-05-12T08:30:23.131Z,26.74
2023-05-12T08:31:23.196Z,25.00
2023-05-12T08:32:23.265Z,23.45
2023-05-12T08:33:23.176Z,26.97
2023-05-12T08:34:23.836Z,28.69
2023-05-12T08:35:23.234Z,25.00
2023-05-12T08:36:23.295Z,25.00
2023-05-12T08:37:23.349Z,28.17
2023-05-12T08:38:23.429Z,28.23
2023-05-12T08:39:23.433Z,27.34
2023-05-12T08:40:23.663Z,24.05
2023-05-12T08:41:23.565Z,38.33
2023-05-12T08:42:23.602Z,51.66
2023-05-12T08:43:23.651Z,42.78
2023-05-12T08:44:23.755Z,31.05
2023-05-12T08:45:23.777Z,22.72
2023-05-12T08:46:23.886Z,26.63
2023-05-12T08:47:23.983Z,30.06
2023-05-12T08:48:23.928Z,25.22
2023-05-12T08:49:23.962Z,25.00
2023-05-12T08:50:24.200Z,26.77
2023-05-12T08:51:23.955Z,34.15
2023-05-12T08:52:23.969Z,27.30
2023-05-12T08:53:24.061Z,34.83
2023-05-12T08:54:23.997Z,38.93
2023-05-12T08:55:27.395Z,37.30
2023-05-12T08:57:23.970Z,37.47
2023-05-12T08:58:33.944Z,38.14
2023-05-12T08:59:25.013Z,37.60
2023-05-12T09:00:24.108Z,37.57
2023-05-12T09:01:23.998Z,30.29
2023-05-12T09:02:24.384Z,36.30
2023-05-12T09:03:23.940Z,39.17
2023-05-12T09:04:23.947Z,38.35
2023-05-12T09:05:24.023Z,32.82
2023-05-12T09:06:23.907Z,36.38
2023-05-12T09:07:23.919Z,32.47
2023-05-12T09:08:23.918Z,27.49
2023-05-12T09:09:23.881Z,28.78
2023-05-12T09:11:23.883Z,35.31
2023-05-12T09:12:23.889Z,37.35
2023-05-12T09:13:24.486Z,40.45
2023-05-12T09:14:23.867Z,38.36
2023-05-12T09:15:23.867Z,45.64
2023-05-12T09:16:23.960Z,33.01
2023-05-12T09:17:23.969Z,38.63
2023-05-12T09:18:23.900Z,33.60
2023-05-12T09:19:23.840Z,31.36
2023-05-12T09:20:30.965Z,31.31
2023-05-12T09:21:24.849Z,31.39
2023-05-12T09:22:23.925Z,30.14
2023-05-12T09:23:23.813Z,32.41
2023-05-12T09:24:23.760Z,31.97
2023-05-12T09:25:23.846Z,33.42
2023-05-12T09:26:23.792Z,35.03
2023-05-12T09:27:23.792Z,37.13
2023-05-12T09:28:23.713Z,47.80
2023-05-12T09:29:30.621Z,45.75
2023-05-12T09:30:24.753Z,46.24
2023-05-12T09:31:23.796Z,47.13
2023-05-12T09:32:23.766Z,49.04
2023-05-12T09:33:23.726Z,55.97
2023-05-12T09:34:23.732Z,60.57
2023-05-12T09:35:23.710Z,58.96
2023-05-12T09:36:23.707Z,66.95
2023-05-12T09:37:23.713Z,77.25
2023-05-12T09:38:23.729Z,81.65
2023-05-12T09:39:23.770Z,91.76
2023-05-12T09:40:23.793Z,97.17
2023-05-12T09:41:23.843Z,100.85
2023-05-12T09:42:23.857Z,106.15
2023-05-12T09:43:24.160Z,106.78
2023-05-12T09:44:23.981Z,108.71
2023-05-12T09:45:23.877Z,115.70
2023-05-12T09:46:23.910Z,121.68
2023-05-12T09:47:23.917Z,121.19
2023-05-12T09:48:24.908Z,120.15
2023-05-12T09:49:23.852Z,114.86
2023-05-12T09:50:23.872Z,106.80
2023-05-12T09:51:23.876Z,95.70
2023-05-12T09:52:23.877Z,91.38
2023-05-12T09:53:24.047Z,93.80
2023-05-12T09:54:23.824Z,97.58
2023-05-12T09:55:23.831Z,94.66
2023-05-12T09:56:23.793Z,89.39
2023-05-12T09:57:23.797Z,100.70
2023-05-12T09:58:23.802Z,107.58
2023-05-12T09:59:23.822Z,99.59
2023-05-12T10:00:40.963Z,97.87
2023-05-12T10:01:25.047Z,97.90
2023-05-12T10:02:23.914Z,98.28
2023-05-12T10:03:23.818Z,98.88
2023-05-12T10:04:23.777Z,102.38
2023-05-12T10:05:23.755Z,90.32
2023-05-12T10:06:23.751Z,93.78
2023-05-12T10:07:23.751Z,95.57
2023-05-12T10:08:23.762Z,96.83
2023-05-12T10:09:23.733Z,92.76
2023-05-12T10:10:23.733Z,95.58
2023-05-12T10:11:23.746Z,97.73
2023-05-12T10:12:23.690Z,102.03
2023-05-12T10:13:23.687Z,103.63
2023-05-12T10:14:23.708Z,101.80
2023-05-12T10:15:23.659Z,98.67
2023-05-12T10:16:23.668Z,102.20
2023-05-12T10:17:23.688Z,102.21
2023-05-12T10:18:23.747Z,107.78
2023-05-12T10:19:23.729Z,116.40
2023-05-12T10:20:23.701Z,103.71
2023-05-12T10:21:23.748Z,109.77
2023-05-12T10:22:23.810Z,105.45
2023-05-12T10:23:23.883Z,102.80
2023-05-12T10:24:23.876Z,96.43
2023-05-12T10:25:24.097Z,105.00
2023-05-12T10:26:24.004Z,109.48
2023-05-12T10:27:24.069Z,108.29
2023-05-12T10:28:24.114Z,98.68
2023-05-12T10:29:24.161Z,75.64
2023-05-12T10:30:24.225Z,64.39
2023-05-12T10:31:24.409Z,60.03
2023-05-12T10:32:24.315Z,57.27
2023-05-12T10:33:24.309Z,59.32
2023-05-12T10:34:24.300Z,62.13
2023-05-12T10:35:24.321Z,66.12
2023-05-12T10:36:24.333Z,82.36
2023-05-12T10:37:24.323Z,90.49
2023-05-12T10:38:24.341Z,88.24
2023-05-12T10:39:24.271Z,90.21
2023-05-12T10:40:24.422Z,96.98
2023-05-12T10:41:24.345Z,100.49
2023-05-12T10:42:24.369Z,108.91
2023-05-12T10:43:24.430Z,114.29
2023-05-12T10:44:24.539Z,117.89
2023-05-12T10:45:25.078Z,113.84
2023-05-12T10:46:25.149Z,110.98
2023-05-12T10:47:24.659Z,112.62
2023-05-12T10:48:24.716Z,119.51
2023-05-12T10:49:24.765Z,112.74
2023-05-12T10:50:24.819Z,122.53
2023-05-12T10:51:25.031Z,130.43
2023-05-12T10:52:24.940Z,127.64
2023-05-12T10:54:25.080Z,129.80
2023-05-12T10:55:25.604Z,127.32
2023-05-12T10:56:25.494Z,128.34
2023-05-12T10:57:25.373Z,125.07
2023-05-12T10:58:25.946Z,130.85
2023-05-12T10:59:25.551Z,122.51
2023-05-12T11:00:25.827Z,122.20
2023-05-12T11:01:26.461Z,128.24
2023-05-12T11:02:26.909Z,131.49
2023-05-12T11:03:26.160Z,130.01
2023-05-12T11:05:26.112Z,128.39
2023-05-12T11:06:25.874Z,126.09
2023-05-12T11:07:26.524Z,126.34
2023-05-12T11:08:26.822Z,123.27
2023-05-12T11:09:26.933Z,119.98
2023-05-12T11:10:26.711Z,123.63
2023-05-12T11:11:26.067Z,127.58
2023-05-12T11:12:25.999Z,132.14
2023-05-12T11:13:26.045Z,141.68
2023-05-12T11:14:26.220Z,147.06
2023-05-12T11:15:26.175Z,147.52
2023-05-12T11:16:26.221Z,142.03
2023-05-12T11:17:26.565Z,146.31
2023-05-12T11:18:26.343Z,146.92
2023-05-12T11:19:26.351Z,142.27
2023-05-12T11:20:28.147Z,134.99
2023-05-12T11:21:26.356Z,134.88
2023-05-12T11:22:26.365Z,150.39
2023-05-12T11:23:26.341Z,153.00
2023-05-12T11:24:26.326Z,157.96
2023-05-12T11:25:26.576Z,162.63
2023-05-12T11:26:26.316Z,157.71
2023-05-12T11:27:26.311Z,150.10
2023-05-12T11:28:26.316Z,150.08
2023-05-12T11:29:26.315Z,156.63
2023-05-12T11:30:26.482Z,154.04
2023-05-12T11:31:26.328Z,148.92
2023-05-12T11:32:26.433Z,158.83
2023-05-12T11:33:26.238Z,159.27
2023-05-12T11:34:26.267Z,155.26
2023-05-12T11:35:26.256Z,159.43
2023-05-12T11:36:26.307Z,158.63
2023-05-12T11:37:26.269Z,160.03
2023-05-12T11:38:26.230Z,161.03
2023-05-12T11:39:26.220Z,160.33
2023-05-12T11:40:26.232Z,162.70
2023-05-12T11:41:26.337Z,163.15
2023-05-12T11:42:26.197Z,165.45
2023-05-12T11:43:26.199Z,165.25
2023-05-12T11:44:26.186Z,165.65
2023-05-12T11:45:26.156Z,163.73
2023-05-12T11:46:26.459Z,164.79
2023-05-12T11:47:26.318Z,166.14
2023-05-12T11:48:26.133Z,162.63
2023-05-12T11:49:26.156Z,166.77
2023-05-12T11:50:26.254Z,163.39
2023-05-12T11:51:26.157Z,165.43
2023-05-12T11:52:26.136Z,164.74
2023-05-12T11:53:27.137Z,163.67
2023-05-12T11:54:26.075Z,164.72
2023-05-12T11:55:26.097Z,166.45
2023-05-12T11:56:26.599Z,167.41
2023-05-12T11:57:26.117Z,164.77
2023-05-12T11:58:26.108Z,165.30
2023-05-12T11:59:26.057Z,167.74
2023-05-12T12:00:26.039Z,165.92
2023-05-12T12:01:26.093Z,169.62
2023-05-12T12:02:26.128Z,169.01
2023-05-12T12:03:26.189Z,168.35
2023-05-12T12:04:26.026Z,169.42
2023-05-12T12:05:26.014Z,170.18
2023-05-12T12:06:26.014Z,168.69
2023-05-12T12:07:26.019Z,169.28
2023-05-12T12:08:26.015Z,169.64
2023-05-12T12:09:25.986Z,169.67
2023-05-12T12:10:25.986Z,171.12
2023-05-12T12:11:25.983Z,172.27
2023-05-12T12:12:26.002Z,172.23
2023-05-12T12:13:26.027Z,171.58
2023-05-12T12:14:25.966Z,172.68
2023-05-12T12:15:25.978Z,172.34
2023-05-12T12:16:25.930Z,169.21
2023-05-12T12:17:26.073Z,169.42
2023-05-12T12:18:26.071Z,171.27
2023-05-12T12:19:25.905Z,170.30
2023-05-12T12:20:25.876Z,170.82
2023-05-12T12:21:25.892Z,169.80
2023-05-12T12:22:25.915Z,167.45
2023-05-12T12:23:25.882Z,170.15
2023-05-12T12:24:25.925Z,170.41
2023-05-12T12:25:25.951Z,169.74
2023-05-12T12:26:25.940Z,170.52
2023-05-12T12:27:25.955Z,168.83
2023-05-12T12:28:25.962Z,166.07
2023-05-12T12:29:26.010Z,165.68
2023-05-12T12:30:25.995Z,166.69
2023-05-12T12:31:26.039Z,167.27
2023-05-12T12:32:25.984Z,169.10
2023-05-12T12:33:25.996Z,165.03
2023-05-12T12:34:26.031Z,164.11
2023-05-12T12:35:26.067Z,162.84
2023-05-12T12:36:26.071Z,162.09
2023-05-12T12:37:26.065Z,161.34
2023-05-12T12:38:26.073Z,162.63
2023-05-12T12:39:26.062Z,158.41